createdAt,value
2019-02-12T00:01:25.455Z,102879.39
2019-02-12T00:03:55.266Z,102886.92
2019-02-12T00:06:24.966Z,102892.58
2019-02-12T00:08:54.770Z,102902.19
2019-02-12T00:11:24.434Z,102908.92
2019-02-12T00:13:54.112Z,102921.58
2019-02-12T00:16:23.790Z,102913.95
2019-02-12T00:18:53.532Z,102921.27
2019-02-12T00:21:23.193Z,102925.30
2019-02-12T00:23:52.958Z,102924.73
2019-02-12T00:26:22.641Z,102918.13
2019-02-12T00:28:52.302Z,102920.76
2019-02-12T00:31:21.967Z,102919.16
2019-02-12T00:33:51.615Z,102922.41
2019-02-12T00:36:21.398Z,102919.81
2019-02-12T00:38:51.040Z,102921.63
2019-02-12T00:41:20.735Z,102921.39
2019-02-12T00:43:50.445Z,102931.64
2019-02-12T00:46:20.106Z,102934.06
2019-02-12T00:48:49.770Z,102935.64
2019-02-12T00:51:19.448Z,102935.08
2019-02-12T00:53:49.147Z,102938.69
2019-02-12T00:56:18.822Z,102935.35
2019-02-12T00:58:48.795Z,102937.53
2019-02-12T01:01:18.494Z,102942.27
2019-02-12T01:03:48.554Z,102937.49
2019-02-12T01:06:18.776Z,102937.05
2019-02-12T01:08:48.422Z,102938.28
2019-02-12T01:11:18.191Z,102943.75
2019-02-12T01:13:47.857Z,102942.92
2019-02-12T01:16:17.547Z,102945.73
2019-02-12T01:18:47.228Z,102935.88
2019-02-12T01:21:16.893Z,102932.48
2019-02-12T01:23:46.577Z,102932.98
2019-02-12T01:26:16.273Z,102924.55
2019-02-12T01:28:45.917Z,102930.68
2019-02-12T01:31:15.622Z,102931.13
2019-02-12T01:33:45.276Z,102928.60
2019-02-12T01:36:14.974Z,102929.13
2019-02-12T01:38:44.609Z,102936.58
2019-02-12T01:41:15.009Z,102937.70
2019-02-12T01:43:44.705Z,102939.58
2019-02-12T01:46:14.376Z,102939.80
2019-02-12T01:48:44.072Z,102937.88
2019-02-12T01:51:13.731Z,102939.03
2019-02-12T01:53:43.385Z,102939.22
2019-02-12T01:56:13.070Z,102938.17
2019-02-12T01:58:42.740Z,102943.07
2019-02-12T02:01:12.459Z,102943.22
2019-02-12T02:03:42.210Z,102946.21
2019-02-12T02:06:11.878Z,102948.23
2019-02-12T02:08:41.597Z,102948.55
2019-02-12T02:11:11.277Z,102938.87
2019-02-12T02:13:40.937Z,102940.98
2019-02-12T02:16:10.686Z,102941.48
2019-02-12T02:18:40.355Z,102944.57
2019-02-12T02:21:10.048Z,102950.33
2019-02-12T02:23:39.724Z,102956.73
2019-02-12T02:26:09.484Z,102954.62
2019-02-12T02:28:39.135Z,102953.30
2019-02-12T02:31:08.907Z,102943.22
2019-02-12T02:33:38.890Z,102948.48
2019-02-12T02:36:08.571Z,102947.70
2019-02-12T02:38:38.210Z,102951.27
2019-02-12T02:41:07.980Z,102958.45
2019-02-12T02:43:37.657Z,102955.82
2019-02-12T02:46:07.323Z,102961.00
2019-02-12T02:48:36.977Z,102951.17
2019-02-12T02:51:06.700Z,102947.98
2019-02-12T02:53:36.352Z,102961.64
2019-02-12T02:56:06.046Z,102967.86
2019-02-12T02:58:35.974Z,102968.09
2019-02-12T03:01:05.808Z,102970.36
2019-02-12T03:03:35.498Z,102964.56
2019-02-12T03:06:05.266Z,102968.25
2019-02-12T03:08:34.989Z,102966.82
2019-02-12T03:11:04.680Z,102975.13
2019-02-12T03:13:34.310Z,102976.14
2019-02-12T03:16:03.987Z,102968.92
2019-02-12T03:18:33.688Z,102975.58
2019-02-12T03:21:03.341Z,102980.31
2019-02-12T03:23:33.041Z,102973.39
2019-02-12T03:26:02.755Z,102970.61
2019-02-12T03:28:32.489Z,102976.09
2019-02-12T03:31:02.238Z,102976.73
2019-02-12T03:33:31.957Z,102977.52
2019-02-12T03:36:01.613Z,102975.03
2019-02-12T03:38:31.305Z,102979.84
2019-02-12T03:41:00.968Z,102976.41
2019-02-12T03:43:30.651Z,102979.17
2019-02-12T03:46:00.292Z,102978.34
2019-02-12T03:48:29.996Z,102986.91
2019-02-12T03:50:59.669Z,102990.92
2019-02-12T03:53:29.349Z,102994.33
2019-02-12T03:55:59.171Z,102994.69
2019-02-12T03:58:28.999Z,102994.23
2019-02-12T04:00:58.853Z,102990.64
2019-02-12T04:03:30.108Z,102988.50
2019-02-12T04:05:59.788Z,102990.64
2019-02-12T04:08:29.563Z,102990.64
2019-02-12T04:10:59.318Z,102990.98
2019-02-12T04:13:28.995Z,102994.64
2019-02-12T04:15:58.658Z,102992.72
2019-02-12T04:18:28.344Z,102990.88
2019-02-12T04:20:58.113Z,103000.64
2019-02-12T04:23:27.853Z,102994.60
2019-02-12T04:25:57.487Z,102995.39
2019-02-12T04:28:27.151Z,103009.12
2019-02-12T04:30:56.883Z,103011.27
2019-02-12T04:33:26.559Z,103004.04
2019-02-12T04:35:56.228Z,103006.36
2019-02-12T04:38:25.975Z,103014.09
2019-02-12T04:40:55.643Z,103005.22
2019-02-12T04:43:25.318Z,103005.41
2019-02-12T04:45:54.972Z,103008.04
2019-02-12T04:48:24.655Z,103002.77
2019-02-12T04:50:54.570Z,103006.73
2019-02-12T04:53:24.351Z,103003.93
2019-02-12T04:55:54.162Z,103001.88
2019-02-12T04:58:23.775Z,102999.78
2019-02-12T05:00:53.447Z,103006.09
2019-02-12T05:03:23.118Z,103006.73
2019-02-12T05:05:52.834Z,103005.45
2019-02-12T05:08:22.454Z,103003.33
2019-02-12T05:11:05.035Z,103004.98
2019-02-12T05:13:34.747Z,103011.53
2019-02-12T05:16:04.435Z,103004.29
2019-02-12T05:18:34.117Z,103001.97
2019-02-12T05:21:03.818Z,103010.53
2019-02-12T05:23:33.584Z,103013.98
2019-02-12T05:26:03.270Z,103011.05
2019-02-12T05:28:33.027Z,103011.36
2019-02-12T05:31:02.695Z,103012.36
2019-02-12T05:33:32.379Z,103011.16
2019-02-12T05:36:02.040Z,103013.45
2019-02-12T05:38:31.771Z,103010.02
2019-02-12T05:41:01.460Z,103017.27
2019-02-12T05:43:31.219Z,103011.70
2019-02-12T05:46:00.957Z,103009.21
2019-02-12T05:48:30.630Z,103008.55
2019-02-12T05:51:00.322Z,103007.41
2019-02-12T05:53:30.017Z,103010.23
2019-02-12T05:55:59.694Z,103014.67
2019-02-12T05:58:29.467Z,103008.16
2019-02-12T06:00:59.098Z,103021.39
2019-02-12T06:03:28.851Z,103024.20
2019-02-12T06:05:58.586Z,103024.52
2019-02-12T06:08:28.353Z,103021.88
2019-02-12T06:10:58.020Z,103017.63
2019-02-12T06:13:27.836Z,103024.84
2019-02-12T06:15:57.564Z,103030.59
2019-02-12T06:18:27.242Z,103027.43
2019-02-12T06:20:56.909Z,103025.61
2019-02-12T06:23:26.674Z,103037.29
2019-02-12T06:25:56.418Z,103032.70
2019-02-12T06:28:26.077Z,103032.52
2019-02-12T06:30:55.740Z,103032.67
2019-02-12T06:33:25.438Z,103023.48
2019-02-12T06:35:55.117Z,103028.56
2019-02-12T06:38:24.777Z,103029.70
2019-02-12T06:40:54.505Z,103030.17
2019-02-12T06:43:24.131Z,103033.19
2019-02-12T06:45:53.849Z,103026.92
2019-02-12T06:48:23.491Z,103035.12
2019-02-12T06:50:53.158Z,103037.50
2019-02-12T06:53:22.813Z,103041.61
2019-02-12T06:55:52.513Z,103044.38
2019-02-12T06:58:24.577Z,103048.66
2019-02-12T07:00:54.307Z,103050.95
2019-02-12T07:03:24.422Z,103048.79
2019-02-12T07:06:01.470Z,103055.70
2019-02-12T07:08:41.821Z,103051.70
2019-02-12T07:11:34.151Z,103053.48
2019-02-12T07:14:26.116Z,103067.11
2019-02-12T07:17:18.321Z,103069.56
2019-02-12T07:20:08.917Z,103067.56
2019-02-12T07:23:21.155Z,103067.84
2019-02-12T07:26:03.809Z,103079.77
2019-02-12T07:28:52.495Z,103092.03
2019-02-12T07:31:35.842Z,103098.25
2019-02-12T07:34:29.583Z,103107.75
2019-02-12T07:37:30.365Z,103109.89
2019-02-12T07:40:27.155Z,103114.89
2019-02-12T07:43:26.762Z,103125.28
2019-02-12T07:46:15.700Z,103131.50
2019-02-12T07:48:52.481Z,103139.53
2019-02-12T07:51:44.891Z,103138.40
2019-02-12T07:54:27.901Z,103142.51
2019-02-12T07:57:26.221Z,103140.52
2019-02-12T08:00:03.604Z,103139.81
2019-02-12T08:03:01.526Z,103148.19
2019-02-12T08:05:46.781Z,103151.92
2019-02-12T08:09:05.554Z,103154.84
2019-02-12T08:11:59.210Z,103163.48
2019-02-12T08:14:48.454Z,103171.86
2019-02-12T08:17:43.789Z,103184.20
2019-02-12T08:20:26.573Z,103175.66
2019-02-12T08:23:19.113Z,103179.39
2019-02-12T08:26:17.308Z,103189.55
2019-02-12T08:28:54.560Z,103188.20
2019-02-12T08:31:37.688Z,103190.86
2019-02-12T08:34:20.572Z,103196.11
2019-02-12T08:37:03.930Z,103201.20
2019-02-12T08:40:03.098Z,103198.56
2019-02-12T08:42:49.144Z,103199.60
2019-02-12T08:45:34.757Z,103197.70
2019-02-12T08:48:09.026Z,103192.73
2019-02-12T08:50:58.034Z,103198.24
2019-02-12T08:53:50.440Z,103200.40
2019-02-12T08:56:45.550Z,103200.40
2019-02-12T08:59:40.444Z,103198.44
2019-02-12T09:02:14.668Z,103193.87
2019-02-12T09:05:17.539Z,103191.31
2019-02-12T09:08:03.826Z,103193.42
2019-02-12T09:11:07.949Z,103205.67
2019-02-12T09:13:53.764Z,103206.20
2019-02-12T09:16:44.534Z,103205.83
2019-02-12T09:19:27.601Z,103205.94
2019-02-12T09:22:28.868Z,103199.70
2019-02-12T09:25:09.393Z,103201.28
2019-02-12T09:27:49.464Z,103201.16
2019-02-12T09:30:32.279Z,103193.83
2019-02-12T09:33:30.090Z,103192.37
2019-02-12T09:36:18.944Z,103199.92
2019-02-12T09:39:01.525Z,103202.27
2019-02-12T09:41:53.839Z,103206.27
2019-02-12T09:44:36.899Z,103209.41
2019-02-12T09:47:16.628Z,103211.97
2019-02-12T09:50:05.890Z,103216.77
2019-02-12T09:53:12.213Z,103224.00
2019-02-12T09:55:52.249Z,103213.87
2019-02-12T09:58:29.066Z,103214.47
2019-02-12T10:01:15.037Z,103216.03
2019-02-12T10:04:03.881Z,103221.76
2019-02-12T10:06:59.433Z,103225.22
2019-02-12T10:09:39.555Z,103223.20
2019-02-12T10:12:22.474Z,103212.42
2019-02-12T10:15:08.695Z,103222.36
2019-02-12T10:18:02.202Z,103218.30
2019-02-12T10:21:00.437Z,103218.08
2019-02-12T10:24:19.045Z,103226.02
2019-02-12T10:27:03.908Z,103234.12
2019-02-12T10:29:56.226Z,103241.66
2019-02-12T10:32:24.205Z,103250.59
2019-02-12T10:34:54.048Z,103239.14
2019-02-12T10:37:23.790Z,103244.93
2019-02-12T10:39:53.489Z,103239.58
2019-02-12T10:42:23.301Z,103243.72
2019-02-12T10:44:53.127Z,103239.75
2019-02-12T10:47:23.781Z,103239.87
2019-02-12T10:49:53.554Z,103237.47
2019-02-12T10:52:23.301Z,103229.68
2019-02-12T10:54:55.068Z,103231.45
2019-02-12T10:57:24.738Z,103224.44
2019-02-12T10:59:54.496Z,103230.68
2019-02-12T11:02:24.169Z,103223.16
2019-02-12T11:04:54.797Z,103223.37
2019-02-12T11:07:24.845Z,103228.38
2019-02-12T11:09:54.549Z,103228.45
2019-02-12T11:12:25.273Z,103228.10
2019-02-12T11:14:55.009Z,103225.88
2019-02-12T11:17:24.768Z,103219.89
2019-02-12T11:19:54.502Z,103217.34
2019-02-12T11:22:24.647Z,103219.20
2019-02-12T11:24:54.328Z,103217.05
2019-02-12T11:27:24.240Z,103215.23
2019-02-12T11:29:53.947Z,103218.73
2019-02-12T11:32:23.682Z,103221.25
2019-02-12T11:34:53.357Z,103220.05
2019-02-12T11:37:23.024Z,103215.95
2019-02-12T11:39:52.766Z,103221.38
2019-02-12T11:42:22.906Z,103215.38
2019-02-12T11:44:52.570Z,103218.12
2019-02-12T11:47:22.242Z,103213.10
2019-02-12T11:49:51.912Z,103216.70
2019-02-12T11:52:21.602Z,103215.66
2019-02-12T11:54:51.221Z,103212.41
2019-02-12T11:57:21.043Z,103210.70
2019-02-12T11:59:52.295Z,103209.05
2019-02-12T12:02:23.961Z,103207.64
2019-02-12T12:04:53.891Z,103209.05
2019-02-12T12:07:23.599Z,103207.66
2019-02-12T12:09:53.545Z,103203.56
2019-02-12T12:12:23.292Z,103203.36
2019-02-12T12:14:53.023Z,103199.06
2019-02-12T12:17:22.834Z,103196.32
2019-02-12T12:19:52.505Z,103193.80
2019-02-12T12:22:22.386Z,103195.61
2019-02-12T12:24:52.062Z,103196.52
2019-02-12T12:27:21.809Z,103197.84
2019-02-12T12:29:51.472Z,103196.73
2019-02-12T12:32:21.148Z,103203.16
2019-02-12T12:34:51.193Z,103191.72
2019-02-12T12:37:20.962Z,103193.75
2019-02-12T12:39:50.962Z,103188.16
2019-02-12T12:42:20.698Z,103187.12
2019-02-12T12:44:52.141Z,103186.33
2019-02-12T12:47:21.946Z,103184.18
2019-02-12T12:49:54.706Z,103191.43
2019-02-12T12:52:24.428Z,103187.74
2019-02-12T12:54:59.753Z,103196.02
2019-02-12T12:57:25.707Z,103194.08
2019-02-12T12:59:55.422Z,103193.97
2019-02-12T13:02:25.097Z,103192.94
2019-02-12T13:04:54.780Z,103193.75
2019-02-12T13:07:25.388Z,103199.15
2019-02-12T13:09:55.068Z,103205.40
2019-02-12T13:12:24.753Z,103200.09
2019-02-12T13:14:54.379Z,103198.73
2019-02-12T13:17:24.103Z,103199.68
2019-02-12T13:19:53.829Z,103192.55
2019-02-12T13:22:23.573Z,103187.25
2019-02-12T13:24:53.258Z,103186.13
2019-02-12T13:27:22.894Z,103183.65
2019-02-12T13:29:52.658Z,103187.04
2019-02-12T13:32:22.394Z,103191.93
2019-02-12T13:34:53.520Z,103194.38
2019-02-12T13:37:23.331Z,103192.25
2019-02-12T13:39:53.010Z,103192.22
2019-02-12T13:42:22.725Z,103197.52
2019-02-12T13:44:52.375Z,103196.94
2019-02-12T13:47:22.149Z,103191.00
2019-02-12T13:49:51.906Z,103191.50
2019-02-12T13:52:22.643Z,103190.41
2019-02-12T13:54:52.341Z,103188.98
2019-02-12T13:57:22.102Z,103186.12
2019-02-12T13:59:51.833Z,103185.59
2019-02-12T14:02:21.572Z,103192.81
2019-02-12T14:04:51.301Z,103179.42
2019-02-12T14:07:21.090Z,103186.54
2019-02-12T14:09:51.733Z,103184.80
2019-02-12T14:12:21.367Z,103175.78
2019-02-12T14:14:51.038Z,103180.59
2019-02-12T14:17:20.741Z,103183.98
2019-02-12T14:19:50.457Z,103179.89
2019-02-12T14:22:20.287Z,103177.77
2019-02-12T14:24:50.049Z,103178.20
2019-02-12T14:27:19.698Z,103189.94
2019-02-12T14:29:49.436Z,103185.66
2019-02-12T14:32:19.084Z,103191.09
2019-02-12T14:34:49.036Z,103190.20
2019-02-12T14:37:19.018Z,103187.93
2019-02-12T14:39:48.684Z,103182.79
2019-02-12T14:42:18.397Z,103189.94
2019-02-12T14:44:48.202Z,103191.09
2019-02-12T14:47:17.937Z,103185.25
2019-02-12T14:49:47.758Z,103179.86
2019-02-12T14:52:17.419Z,103193.93
2019-02-12T14:54:47.115Z,103186.59
2019-02-12T14:57:16.882Z,103196.77
2019-02-12T14:59:46.566Z,103183.91
2019-02-12T15:02:16.437Z,103183.42
2019-02-12T15:04:46.342Z,103190.16
2019-02-12T15:07:16.227Z,103188.09
2019-02-12T15:09:46.020Z,103187.81
2019-02-12T15:12:15.812Z,103187.39
2019-02-12T15:14:45.635Z,103178.50
2019-02-12T15:17:15.505Z,103181.47
2019-02-12T15:19:45.309Z,103179.61
2019-02-12T15:22:15.143Z,103182.45
2019-02-12T15:24:44.813Z,103178.39
2019-02-12T15:27:14.546Z,103185.47
2019-02-12T15:29:44.402Z,103172.33
2019-02-12T15:32:14.038Z,103177.03
2019-02-12T15:34:43.848Z,103171.12
2019-02-12T15:37:13.619Z,103177.95
2019-02-12T15:39:43.632Z,103174.10
2019-02-12T15:42:13.344Z,103179.09
2019-02-12T15:44:44.406Z,103169.51
2019-02-12T15:47:14.119Z,103174.59
2019-02-12T15:49:45.388Z,103171.33
2019-02-12T15:52:15.616Z,103167.03
2019-02-12T15:54:45.531Z,103172.25
2019-02-12T15:57:15.270Z,103173.66
2019-02-12T15:59:45.006Z,103177.44
2019-02-12T16:02:14.753Z,103180.70
2019-02-12T16:04:46.135Z,103173.45
2019-02-12T16:07:15.904Z,103165.09
2019-02-12T16:09:45.823Z,103171.09
2019-02-12T16:12:15.489Z,103171.50
2019-02-12T16:14:46.881Z,103175.47
2019-02-12T16:17:16.608Z,103178.70
2019-02-12T16:19:47.025Z,103185.73
2019-02-12T16:22:17.790Z,103187.97
2019-02-12T16:24:49.190Z,103197.23
2019-02-12T16:27:20.416Z,103196.69
2019-02-12T16:29:50.341Z,103205.56
2019-02-12T16:32:20.116Z,103205.64
2019-02-12T16:34:49.827Z,103210.80
2019-02-12T16:37:19.499Z,103208.03
2019-02-12T16:39:49.601Z,103203.92
2019-02-12T16:42:20.317Z,103212.56
2019-02-12T16:44:52.469Z,103210.74
2019-02-12T16:47:22.958Z,103218.76
2019-02-12T16:49:55.086Z,103218.13
2019-02-12T16:52:27.277Z,103216.35
2019-02-12T16:54:59.371Z,103223.13
2019-02-12T16:57:32.489Z,103222.41
2019-02-12T17:00:02.262Z,103225.58
2019-02-12T17:02:31.908Z,103229.98
2019-02-12T17:05:02.089Z,103238.02
2019-02-12T17:07:31.799Z,103238.95
2019-02-12T17:10:03.794Z,103240.67
2019-02-12T17:12:34.431Z,103239.71
2019-02-12T17:15:04.720Z,103238.72
2019-02-12T17:17:34.521Z,103232.17
2019-02-12T17:20:06.281Z,103238.78
2019-02-12T17:22:36.005Z,103240.11
2019-02-12T17:25:11.683Z,103242.95
2019-02-12T17:27:41.389Z,103245.47
2019-02-12T17:30:17.034Z,103249.53
2019-02-12T17:32:46.809Z,103257.23
2019-02-12T17:35:16.607Z,103258.95
2019-02-12T17:37:46.357Z,103256.41
2019-02-12T17:40:18.621Z,103266.88
2019-02-12T17:42:48.290Z,103264.30
2019-02-12T17:45:19.425Z,103264.98
2019-02-12T17:47:49.281Z,103261.02
2019-02-12T17:50:19.131Z,103265.88
2019-02-12T17:52:48.812Z,103262.49
2019-02-12T17:55:18.519Z,103262.25
2019-02-12T17:57:49.133Z,103266.52
2019-02-12T18:00:27.923Z,103261.03
2019-02-12T18:02:57.881Z,103266.47
2019-02-12T18:05:28.114Z,103261.77
2019-02-12T18:07:58.148Z,103261.81
2019-02-12T18:10:27.880Z,103261.18
2019-02-12T18:12:57.569Z,103266.17
2019-02-12T18:15:27.220Z,103268.87
2019-02-12T18:17:56.967Z,103260.50
2019-02-12T18:20:27.006Z,103262.84
2019-02-12T18:22:56.822Z,103264.73
2019-02-12T18:25:26.536Z,103265.81
2019-02-12T18:27:56.315Z,103262.53
2019-02-12T18:30:26.035Z,103261.89
2019-02-12T18:32:55.984Z,103262.47
2019-02-12T18:35:25.685Z,103263.95
2019-02-12T18:37:55.476Z,103266.98
2019-02-12T18:40:25.236Z,103272.45
2019-02-12T18:42:54.957Z,103269.37
2019-02-12T18:45:27.438Z,103272.01
2019-02-12T18:47:57.234Z,103267.75
2019-02-12T18:50:26.961Z,103269.75
2019-02-12T18:52:56.712Z,103262.48
2019-02-12T18:55:26.428Z,103262.81
2019-02-12T18:57:56.263Z,103263.80
2019-02-12T19:00:26.291Z,103258.70
2019-02-12T19:02:55.966Z,103259.83
2019-02-12T19:05:25.670Z,103252.23
2019-02-12T19:07:55.380Z,103254.88
2019-02-12T19:10:25.038Z,103253.89
2019-02-12T19:12:54.737Z,103253.11
2019-02-12T19:15:24.695Z,103243.67
2019-02-12T19:18:10.599Z,103237.55
2019-02-12T19:20:40.770Z,103237.55
2019-02-12T19:23:10.597Z,103241.23
2019-02-12T19:25:40.498Z,103249.50
2019-02-12T19:28:10.254Z,103247.94
2019-02-12T19:30:39.971Z,103250.64
2019-02-12T19:33:09.670Z,103248.73
2019-02-12T19:35:39.494Z,103250.88
2019-02-12T19:38:09.163Z,103258.19
2019-02-12T19:40:38.857Z,103255.14
2019-02-12T19:43:08.617Z,103255.97
2019-02-12T19:45:40.016Z,103268.89
2019-02-12T19:48:13.716Z,103272.33
2019-02-12T19:53:38.955Z,103277.25
2019-02-12T19:56:08.679Z,103279.81
2019-02-12T19:58:38.383Z,103276.56
2019-02-12T20:01:08.098Z,103276.87
2019-02-12T20:03:38.154Z,103282.16
2019-02-12T20:06:07.920Z,103278.57
2019-02-12T20:08:37.753Z,103283.95
2019-02-12T20:11:07.463Z,103280.14
2019-02-12T20:13:37.468Z,103277.44
2019-02-12T20:16:07.981Z,103276.19
2019-02-12T20:18:37.714Z,103278.03
2019-02-12T20:21:07.454Z,103272.41
2019-02-12T20:23:37.143Z,103270.09
2019-02-12T20:26:06.856Z,103266.56
2019-02-12T20:28:36.544Z,103272.23
2019-02-12T20:31:06.297Z,103268.50
2019-02-12T20:33:35.980Z,103274.09
2019-02-12T20:36:05.892Z,103270.27
2019-02-12T20:38:35.595Z,103271.33
2019-02-12T20:41:05.264Z,103267.13
2019-02-12T20:43:34.965Z,103271.33
2019-02-12T20:46:04.753Z,103274.09
2019-02-12T20:48:34.455Z,103270.31
2019-02-12T20:51:04.106Z,103264.73
2019-02-12T20:53:33.827Z,103268.88
2019-02-12T20:56:03.633Z,103275.59
2019-02-12T20:58:33.362Z,103276.92
2019-02-12T21:01:03.122Z,103280.77
2019-02-12T21:03:32.778Z,103278.62
2019-02-12T21:06:02.541Z,103275.03
2019-02-12T21:08:33.148Z,103276.39
2019-02-12T21:11:03.029Z,103268.43
2019-02-12T21:13:32.682Z,103270.05
2019-02-12T21:16:02.395Z,103269.82
2019-02-12T21:18:32.064Z,103278.77
2019-02-12T21:21:01.801Z,103272.66
2019-02-12T21:23:31.482Z,103275.59
2019-02-12T21:26:01.249Z,103279.26
2019-02-12T21:28:30.954Z,103285.38
2019-02-12T21:31:00.659Z,103283.97
2019-02-12T21:33:30.373Z,103287.75
2019-02-12T21:36:01.431Z,103296.01
2019-02-12T21:38:31.107Z,103297.25
2019-02-12T21:41:00.795Z,103283.48
2019-02-12T21:43:30.585Z,103283.05
2019-02-12T21:46:00.205Z,103290.80
2019-02-12T21:48:29.971Z,103294.61
2019-02-12T21:50:59.627Z,103293.11
2019-02-12T21:53:29.323Z,103303.53
2019-02-12T21:55:59.110Z,103308.33
2019-02-12T21:58:28.755Z,103310.48
2019-02-12T22:00:59.706Z,103314.55
2019-02-12T22:03:29.425Z,103311.61
2019-02-12T22:05:59.198Z,103316.21
2019-02-12T22:08:28.883Z,103315.50
2019-02-12T22:10:58.568Z,103319.72
2019-02-12T22:13:28.248Z,103320.73
2019-02-12T22:15:58.008Z,103331.80
2019-02-12T22:18:27.673Z,103326.92
2019-02-12T22:20:57.355Z,103332.94
2019-02-12T22:23:27.030Z,103327.72
2019-02-12T22:25:56.729Z,103325.46
2019-02-12T22:28:26.404Z,103327.77
2019-02-12T22:30:57.077Z,103337.30
2019-02-12T22:33:34.818Z,103335.83
2019-02-12T22:36:05.485Z,103336.09
2019-02-12T22:38:53.141Z,103328.96
2019-02-12T22:41:22.869Z,103328.84
2019-02-12T22:43:53.811Z,103329.16
2019-02-12T22:46:23.556Z,103326.84
2019-02-12T22:48:53.245Z,103318.70
2019-02-12T22:51:22.916Z,103334.73
2019-02-12T22:53:53.137Z,103334.40
2019-02-12T22:56:22.939Z,103348.20
2019-02-12T22:58:52.585Z,103341.94
2019-02-12T23:01:24.044Z,103338.16
2019-02-12T23:03:53.775Z,103334.88
2019-02-12T23:06:23.486Z,103338.47
2019-02-12T23:08:53.168Z,103343.18
2019-02-12T23:11:22.819Z,103354.98
2019-02-12T23:13:52.532Z,103354.98
2019-02-12T23:16:22.208Z,103364.23
2019-02-12T23:18:51.896Z,103359.47
2019-02-12T23:21:21.568Z,103357.02
2019-02-12T23:23:51.279Z,103355.39
2019-02-12T23:26:21.926Z,103349.33
2019-02-12T23:28:51.613Z,103349.14
2019-02-12T23:31:21.280Z,103352.92
2019-02-12T23:33:51.250Z,103349.14
2019-02-12T23:36:20.909Z,103356.73
2019-02-12T23:38:50.555Z,103356.39
2019-02-12T23:41:20.235Z,103364.50
2019-02-12T23:43:50.023Z,103366.31
2019-02-12T23:46:19.712Z,103361.70
2019-02-12T23:48:49.407Z,103365.37
2019-02-12T23:51:19.115Z,103366.13
2019-02-12T23:53:48.818Z,103357.64
2019-02-12T23:56:18.584Z,103359.15
2019-02-12T23:58:48.253Z,103359.15
